Surface observations / UK / EGBB

Quebec | Canada | USA | France | UK | Europe | Elsewhere

Display: Info & Location for EGBB | Help decoding METAR

EGBB BIRMINGHAM AIRPORT -- UK
Raw surface observations for station EGBB
EGBB 301820Z 29010KT 9999 FEW035 03/M02 Q0979=
EGBB 301750Z 28008KT 9999 FEW031 SCT041 04/M01 Q0979=
EGBB 301720Z 29005KT 9999 VCSH FEW030 SCT045 03/01 Q0979=
EGBB 301650Z 31006KT 9999 VCSH FEW011 02/01 Q0979 RESHRA=
EGBB 301620Z 30015KT 9999 2000SE SHRA FEW007 SCT012 03/01 Q0979=
EGBB 301550Z 30011KT 9999 FEW020 SCT035 05/00 Q0979=
EGBB 301520Z 30015KT 9999 VCSH SCT035 05/M00 Q0979=
EGBB 301450Z 32019KT 9999 SCT033 06/M02 Q0979=
EGBB 301420Z 31014KT 9999 SCT034 06/01 Q0979=
EGBB 301350Z 32015KT 9999 SCT024 06/02 Q0979=
EGBB 301320Z 31010KT 9999 SCT020 BKN031 05/03 Q0979 REDZ=
EGBB 301250Z 29012KT 260V320 9000 DZ BKN017 BKN027 05/02 Q0979=
EGBB 301220Z AUTO 28007KT 9999 BKN015/// BKN020/// OVC039/// 04/02 Q0979=
EGBB 301150Z 27007KT 9999 BKN020 BKN028 04/01 Q0979=
EGBB 301120Z 28010KT 9999 SCT017 BKN024 OVC030 04/01 Q0979=
EGBB 301050Z 27010KT 9999 -DZ BKN020 BKN031 04/01 Q0979=
EGBB 301020Z 28007KT 9999 FEW018 BKN030 03/00 Q0979=
EGBB 300950Z 25004KT 200V290 9999 BKN034 02/M00 Q0979=
EGBB 300920Z 26005KT 230V290 9999 BKN029 02/M00 Q0979=
EGBB 300850Z 29009KT 9999 BKN030 02/M00 Q0980=
EGBB 300820Z 29008KT 9999 SCT010 01/M00 Q0980=
EGBB 300750Z 31009KT 9999 SCT010 01/M00 Q0979=
EGBB 300720Z 32012KT 9999 BKN008 01/00 Q0979=
EGBB 300650Z 31012KT 9000 BKN005 00/00 Q0978=
EGBB 300620Z 31010KT 4800 BR BKN003 00/00 Q0978=
EGBB 300550Z AUTO 31007KT 9999 SCT001/// BKN004/// 00/00 Q0977=
EGBB 300520Z AUTO 33007KT 0650 FG BKN001/// OVC027/// 00/M00 Q0976 REFZRA=
EGBB 300450Z 34003KT 5000 -RASN FEW005 SCT012 BKN024 00/M00 Q0975 RESN=
EGBB 300420Z 02008KT 1400 SN BKN005 BKN013 01/00 Q0974 RERA=
EGBB 300350Z AUTO 26005KT 230V290 7000 -RA FEW005/// SCT010/// BKN015/// 01/01 Q0974 REDZ=
EGBB 300320Z AUTO 24005KT 210V280 7000 RA FEW011/// SCT015/// BKN020/// 02/01 Q0973=
EGBB 300250Z AUTO 23006KT 200V270 7000 -RA FEW009/// BKN014/// OVC018/// 02/01 Q0973 RERA REFZRA=
EGBB 300220Z AUTO 17004KT 6000 FZRA SCT011/// SCT015/// BKN020/// 01/00 Q0974 REFZDZ=
EGBB 300150Z AUTO 16004KT 9999 -FZDZ BKN029/// BKN034/// 01/00 Q0974 REFZRA=
EGBB 300120Z AUTO 16004KT 130V200 9999 SCT011/// BKN016/// 01/00 Q0975 REFZRA=
EGBB 300050Z AUTO VRB03KT 6000 -SN SCT004/// SCT012/// BKN017/// 01/00 Q0975 RERA=
EGBB 300020Z AUTO 26008KT 7000 -SN FEW006/// SCT009/// BKN020/// 01/M00 Q0975 RERA=
EGBB 292350Z 24005KT 190V270 9999 SCT018 BKN024 02/M01 Q0976=
EGBB 292320Z 24005KT 9999 -SN FEW019 SCT043 02/M01 Q0976=
EGBB 292250Z 25006KT 9999 FEW018 SCT043 02/M01 Q0977=
EGBB 292220Z 27007KT 9999 FEW043 01/M01 Q0977=
EGBB 292150Z 26007KT 9999 FEW038 01/M01 Q0977=
EGBB 292120Z 27007KT 240V310 9999 FEW038 02/M01 Q0977=
EGBB 292050Z 28009KT 9999 FEW019 02/M01 Q0977=
EGBB 292020Z 28009KT 9999 SCT012 01/M01 Q0977=
EGBB 291950Z 27010KT 240V310 9999 SCT012 01/M00 Q0977=
EGBB 291920Z 27009KT 9999 BKN011 01/M01 Q0977=
EGBB 291850Z 29010KT 9999 SCT030 01/M01 Q0977 RESN=
EGBB 291820Z 26008KT 230V290 9000 SCT024 BKN040 01/M02 Q0977=